Home
 
Morpeth (BP) AWS
Home
Latest Observations
 
Search
 
 
Information
  • Contact
  • Copyright Notice
  • Disclaimer
  • Morpeth (Berry Park), NSW
    Automatic Weather Station
    Latitude: 32°44'SLongitude: 151°40'EElevation: 8.0m

    Last update 7:01pm local on Wednesday 29 June 2022

    Date/Time
    EST
    Temp Dew
    Point
    Rel
    Hum
    Max
    Temp
    MaxT
    Time
    Min
    Temp
    MinT
    Time
    Wind Max Wind Gust Rain
    since 9am
    Wind Dir Speed Gust Max
    Dir
    Max Max
    Time
    °C °C % °C   °C   kts kts kts mm
    29-Jun 19:00 10.7 8.2 85 16.3 13:46 8.9 09:13 0.0
    29-Jun 18:00 12.1 8.7 80 16.3 13:46 8.9 09:13 0.0
    29-Jun 17:00 13.3 9.1 76 16.3 13:46 8.9 09:13 0.0
    29-Jun 16:00 14.7 9.4 70 16.3 13:46 8.9 09:13 0.0
    29-Jun 15:00 15.0 9.4 69 16.3 13:46 8.9 09:13 0.0
    29-Jun 14:00 16.0 8.9 63 16.3 13:46 8.9 09:13 0.0
    29-Jun 13:00 14.2 9.5 73 14.2 12:57 8.9 09:13 0.0
    29-Jun 12:00 13.2 9.3 77 13.2 11:58 8.9 09:13 0.0
    29-Jun 11:00 12.6 9.0 79 12.6 10:59 8.9 09:13 0.0
    29-Jun 10:00 11.4 10.1 92 11.4 10:00 8.9 09:13 0.0
    29-Jun 09:00 8.9 8.4 97 14.8 14:27 4.1 06:28 0.2
    29-Jun 08:00 6.5 6.1 97 14.8 14:27 4.1 06:28 0.2
    29-Jun 07:00 5.2 4.9 98 14.8 14:27 4.1 06:28 0.2
    29-Jun 06:00 5.9 5.5 97 14.8 14:27 4.2 05:11 0.2
    29-Jun 05:00 4.8 4.3 97 14.8 14:27 4.7 04:56 0.2
    29-Jun 04:00 6.4 5.8 96 14.8 14:27 6.3 03:56 0.2
    29-Jun 03:00 7.0 6.0 93 14.8 14:27 7.0 03:00 0.2
    29-Jun 02:00 9.4 8.2 92 14.8 14:27 8.0 22:16 0.2
    29-Jun 01:00 9.8 8.7 93 14.8 14:27 8.0 22:16 0.2
    29-Jun 00:00 9.6 8.6 94 14.8 14:27 8.0 22:16 0.2
    28-Jun 23:00 8.5 7.7 95 14.8 14:27 8.0 22:16 0.2
    28-Jun 22:00 8.6 7.6 93 14.8 14:27 8.5 21:57 0.2
    28-Jun 21:00 9.8 8.6 92 14.8 14:27 9.5 18:20 0.2
    28-Jun 20:00 10.1 8.9 92 14.8 14:27 9.5 19:10 0.2
    28-Jun 19:00 9.7 8.2 90 14.8 14:27 9.5 18:20 0.2
    28-Jun 18:00 10.6 8.6 88 14.8 14:27 9.7 09:00 0.2
    28-Jun 17:00 12.3 9.7 84 14.8 14:27 9.7 09:00 0.2
    28-Jun 16:00 13.3 9.9 80 14.8 14:27 9.7 09:00 0.2
    28-Jun 15:00 14.5 9.7 73 14.8 14:27 9.7 09:00 0.2
    28-Jun 14:00 13.0 9.9 81 14.4 12:47 9.7 09:00 0.2
    28-Jun 13:00 13.6 9.7 77 14.4 12:47 9.7 09:00 0.2
    28-Jun 12:00 13.4 9.8 79 13.4 11:59 9.7 09:00 0.2
    28-Jun 11:00 11.4 8.9 85 12.1 10:01 9.7 09:00 0.0
    28-Jun 10:00 12.0 8.4 78 12.0 10:00 9.7 09:00 0.0
    28-Jun 09:00 9.7 6.0 78 17.4 13:38 5.8 04:52 1.2
    28-Jun 08:00 7.9 5.2 83 17.4 13:38 5.8 04:52 0.8
    28-Jun 07:00 7.8 4.8 81 17.4 13:38 5.8 04:52 0.6
    28-Jun 06:00 6.8 4.7 87 17.4 13:38 5.8 04:52 0.6
    28-Jun 05:00 6.2 3.7 84 17.4 13:38 5.8 04:52 0.6
    28-Jun 04:00 6.6 3.5 81 17.4 13:38 6.3 03:53 0.6
    28-Jun 03:00 7.3 4.4 82 17.4 13:38 7.2 03:00 0.6
    28-Jun 02:00 7.5 4.5 82 17.4 13:38 7.5 01:59 0.6
    28-Jun 01:00 8.3 5.2 81 17.4 13:38 8.0 23:57 0.4
    28-Jun 00:00 8.1 5.8 85 17.4 13:38 8.0 23:57 0.4
    27-Jun 23:00 10.3 4.2 66 17.4 13:38 10.2 22:26 0.0
    27-Jun 22:00 10.8 2.7 58 17.4 13:38 10.4 20:22 0.0
    27-Jun 21:00 10.7 2.5 57 17.4 13:38 10.4 20:22 0.0
    27-Jun 20:00 10.8 2.7 57 17.4 13:38 10.8 19:59 0.0
    27-Jun 19:00 11.7 3.1 55 17.4 13:38 11.4 09:01 0.0
    27-Jun 18:00 12.0 3.8 57 17.4 13:38 11.4 09:01 0.0
    27-Jun 17:00 12.9 3.6 53 17.4 13:38 11.4 09:01 0.0
    27-Jun 16:00 14.2 5.6 56 17.4 13:38 11.4 09:01 0.0
    27-Jun 15:00 15.4 5.8 53 17.4 13:38 11.4 09:01 0.0
    27-Jun 14:00 16.6 5.7 49 17.4 13:38 11.4 09:01 0.0
    27-Jun 13:00 17.0 6.6 50 17.3 12:06 11.4 09:01 0.0
    27-Jun 12:00 16.9 5.7 48 17.2 10:57 11.4 09:01 0.0
    27-Jun 11:00 17.0 5.5 47 17.2 10:57 11.4 09:01 0.0
    27-Jun 10:00 14.2 6.2 59 14.2 09:58 11.4 09:01 0.0
    27-Jun 09:00 11.5 6.8 73 20.7 14:07 6.8 04:57 0.0
    27-Jun 08:00 9.6 6.0 78 20.7 14:07 6.8 04:57 0.0
    27-Jun 07:00 9.0 5.6 79 20.7 14:07 6.8 04:57 0.0
    27-Jun 06:00 9.1 5.7 80 20.7 14:07 6.8 04:57 0.0
    27-Jun 05:00 7.1 5.1 87 20.7 14:07 6.8 04:57 0.0
    27-Jun 04:00 9.7 6.0 78 20.7 14:07 7.4 01:31 0.0
    27-Jun 03:00 8.9 6.8 86 20.7 14:07 7.4 01:31 0.0
    27-Jun 02:00 7.8 6.4 91 20.7 14:07 7.4 01:31 0.0
    27-Jun 01:00 8.0 6.6 91 20.7 14:07 7.7 00:25 0.0
    27-Jun 00:00 8.3 6.8 90 20.7 14:07 8.0 23:56 0.0
    26-Jun 23:00 8.8 6.6 86 20.7 14:07 8.3 22:08 0.0
    26-Jun 22:00 8.5 6.3 86 20.7 14:07 8.5 21:59 0.0
    26-Jun 21:00 10.6 7.0 78 20.7 14:07 10.2 20:28 0.0
    26-Jun 20:00 11.3 7.2 76 20.7 14:07 10.4 09:00 0.0

    Wednesday, 29 June 2022
    © 2022 Tim Grugeon